createdAt,value
2023-05-03T00:02:26.555Z,36.2
2023-05-03T00:07:27.111Z,36.1
2023-05-03T00:12:27.542Z,36.1
2023-05-03T00:17:27.939Z,36.1
2023-05-03T00:22:28.325Z,36
2023-05-03T00:27:28.740Z,35.9
2023-05-03T00:32:29.194Z,35.9
2023-05-03T00:37:29.650Z,35.8
2023-05-03T00:42:30.023Z,35.8
2023-05-03T00:47:30.482Z,35.7
2023-05-03T00:52:30.893Z,35.7
2023-05-03T00:57:31.281Z,35.7
2023-05-03T01:02:31.747Z,35.6
2023-05-03T01:07:33.137Z,35.6
2023-05-03T01:12:34.449Z,35.6
2023-05-03T01:17:34.858Z,35.5
2023-05-03T01:22:35.250Z,35.4
2023-05-03T01:27:35.610Z,35.4
2023-05-03T01:32:36.028Z,35.4
2023-05-03T01:37:36.599Z,35.3
2023-05-03T01:42:36.934Z,35.2
2023-05-03T01:47:37.329Z,35.2
2023-05-03T01:52:38.620Z,35.2
2023-05-03T01:57:38.974Z,35.2
2023-05-03T02:02:39.407Z,35.1
2023-05-03T02:07:39.888Z,35.1
2023-05-03T02:12:40.243Z,35.1
2023-05-03T02:17:40.631Z,35
2023-05-03T02:22:41.013Z,34.9
2023-05-03T02:27:42.193Z,34.9
2023-05-03T02:32:42.803Z,34.9
2023-05-03T02:37:43.222Z,34.9
2023-05-03T02:42:43.577Z,34.8
2023-05-03T02:47:44.138Z,34.7
2023-05-03T02:52:44.555Z,34.7
2023-05-03T02:57:44.881Z,34.7
2023-05-03T03:02:45.269Z,34.7
2023-05-03T03:07:45.760Z,34.6
2023-05-03T03:12:46.078Z,34.6
2023-05-03T03:17:46.468Z,34.6
2023-05-03T03:22:46.794Z,34.6
2023-05-03T03:27:47.135Z,34.5
2023-05-03T03:32:47.507Z,34.5
2023-05-03T03:37:47.859Z,34.4
2023-05-03T03:42:48.150Z,34.4
2023-05-03T03:47:48.524Z,34.4
2023-05-03T03:52:48.852Z,34.3
2023-05-03T03:57:49.244Z,34.3
2023-05-03T04:02:49.721Z,34.2
2023-05-03T04:07:50.232Z,34.2
2023-05-03T04:12:50.546Z,34.2
2023-05-03T04:17:50.854Z,34.2
2023-05-03T04:22:51.277Z,34.1
2023-05-03T04:27:51.691Z,34.1
2023-05-03T04:32:52.037Z,34.1
2023-05-03T04:37:52.419Z,34.1
2023-05-03T04:42:52.718Z,34
2023-05-03T04:47:53.063Z,34
2023-05-03T04:52:53.457Z,34
2023-05-03T04:57:53.830Z,33.9
2023-05-03T05:02:54.248Z,33.9
2023-05-03T05:07:54.742Z,33.9
2023-05-03T05:12:55.141Z,33.8
2023-05-03T05:17:55.635Z,33.8
2023-05-03T05:22:56.421Z,33.8
2023-05-03T05:27:57.685Z,33.7
2023-05-03T05:32:58.033Z,33.7
2023-05-03T05:37:58.456Z,33.7
2023-05-03T05:42:58.758Z,33.7
2023-05-03T05:47:59.298Z,33.6
2023-05-03T05:52:59.713Z,33.6
2023-05-03T05:58:00.013Z,33.6
2023-05-03T06:03:00.429Z,33.6
2023-05-03T06:08:00.933Z,33.1
2023-05-03T06:13:01.227Z,32.9
2023-05-03T06:18:01.506Z,32.9
2023-05-03T06:23:01.881Z,32.8
2023-05-03T06:28:02.203Z,32.8
2023-05-03T06:33:02.542Z,32.8
2023-05-03T06:38:02.872Z,32.7
2023-05-03T06:43:03.167Z,32.7
2023-05-03T06:48:03.576Z,32.7
2023-05-03T06:53:03.994Z,32.7
2023-05-03T06:58:05.327Z,32.7
2023-05-03T07:03:05.724Z,32.6
2023-05-03T07:08:06.091Z,32.6
2023-05-03T07:13:06.491Z,32.6
2023-05-03T07:18:07.044Z,32.6
2023-05-03T07:23:07.330Z,32.6
2023-05-03T07:28:07.818Z,32.5
2023-05-03T07:33:08.225Z,32.5
2023-05-03T07:38:08.602Z,32.5
2023-05-03T07:43:09.000Z,32.4
2023-05-03T07:48:09.461Z,32.4
2023-05-03T07:53:09.890Z,32.4
2023-05-03T07:58:10.305Z,32.4
2023-05-03T08:03:10.757Z,32.4
2023-05-03T08:08:11.149Z,32.3
2023-05-03T08:13:11.446Z,32.3
2023-05-03T08:18:12.026Z,32.2
2023-05-03T08:23:12.325Z,32.2
2023-05-03T08:28:13.013Z,32.2
2023-05-03T08:33:13.440Z,32.2
2023-05-03T08:38:13.848Z,32.2
2023-05-03T08:43:14.144Z,32.1
2023-05-03T08:48:14.492Z,32.1
2023-05-03T08:53:14.849Z,32.1
2023-05-03T08:58:15.221Z,32.1
2023-05-03T09:03:15.625Z,32.1
2023-05-03T09:08:16.061Z,32
2023-05-03T09:13:16.313Z,32
2023-05-03T09:18:16.668Z,32
2023-05-03T09:23:17.082Z,32
2023-05-03T09:28:17.398Z,31.9
2023-05-03T09:33:17.737Z,31.9
2023-05-03T09:38:17.990Z,31.9
2023-05-03T09:43:19.443Z,31.9
2023-05-03T09:48:19.950Z,31.9
2023-05-03T09:53:20.216Z,31.9
2023-05-03T09:58:20.519Z,31.8
2023-05-03T10:03:20.975Z,31.8
2023-05-03T10:08:21.223Z,31.8
2023-05-03T10:13:21.486Z,31.8
2023-05-03T10:18:21.790Z,31.8
2023-05-03T10:23:22.034Z,31.8
2023-05-03T10:28:24.004Z,31.8
2023-05-03T10:33:25.871Z,31.7
2023-05-03T10:38:26.098Z,31.7
2023-05-03T10:43:26.379Z,31.6
2023-05-03T10:48:26.579Z,31.6
2023-05-03T10:53:26.807Z,31.6
2023-05-03T10:58:27.060Z,31.6
2023-05-03T11:03:29.034Z,31.6
2023-05-03T11:08:29.412Z,31.6
2023-05-03T11:13:29.757Z,31.5
2023-05-03T11:18:30.047Z,31.5
2023-05-03T11:23:30.419Z,31.4
2023-05-03T11:28:30.849Z,31.4
2023-05-03T11:33:31.090Z,31.4
2023-05-03T11:38:32.975Z,31.4
2023-05-03T11:43:33.203Z,31.4
2023-05-03T11:48:35.154Z,31.4
2023-05-03T11:53:35.468Z,31.4
2023-05-03T11:58:35.744Z,31.3
2023-05-03T12:03:36.353Z,31.3
2023-05-03T12:08:38.865Z,31.3
2023-05-03T12:13:40.629Z,31.3
2023-05-03T12:18:41.261Z,31.2
2023-05-03T12:23:41.681Z,31.2
2023-05-03T12:28:42.071Z,31.2
2023-05-03T12:33:43.599Z,31.2
2023-05-03T12:38:44.333Z,31.2
2023-05-03T12:43:44.708Z,31.2
2023-05-03T12:48:46.559Z,31.2
2023-05-03T12:53:47.715Z,31.1
2023-05-03T13:04:10.928Z,31.1
2023-05-03T13:09:37.595Z,31.1
2023-05-03T13:14:40.799Z,31.1
2023-05-03T13:19:42.704Z,31.1
2023-05-03T13:24:44.773Z,31.1
2023-05-03T13:29:49.049Z,31.1
2023-05-03T13:34:51.657Z,31
2023-05-03T13:39:52.085Z,31
2023-05-03T13:44:53.998Z,31
2023-05-03T13:49:56.138Z,30.9
2023-05-03T13:54:56.364Z,30.9
2023-05-03T13:59:56.587Z,30.9
2023-05-03T14:04:56.863Z,30.9
2023-05-03T14:09:57.288Z,30.9
2023-05-03T14:14:57.526Z,30.9
2023-05-03T14:19:57.918Z,30.9
2023-05-03T14:24:58.240Z,30.9
2023-05-03T14:29:58.651Z,30.9
2023-05-03T14:34:58.954Z,30.8
2023-05-03T14:39:59.198Z,30.8
2023-05-03T14:44:59.469Z,30.8
2023-05-03T14:49:59.762Z,30.8
2023-05-03T14:54:59.970Z,30.8
2023-05-03T15:00:00.375Z,30.8
2023-05-03T15:05:00.633Z,31
2023-05-03T15:10:01.134Z,34.4
2023-05-03T15:15:01.757Z,36.9
2023-05-03T15:20:02.478Z,38.9
2023-05-03T15:25:03.131Z,40.1
2023-05-03T15:30:04.037Z,40.7
2023-05-03T15:35:04.856Z,41.4
2023-05-03T15:40:05.733Z,42.4
2023-05-03T15:45:06.735Z,42.5
2023-05-03T15:50:07.734Z,43
2023-05-03T15:55:08.706Z,41.2
2023-05-03T16:00:10.300Z,39.7
2023-05-03T16:05:11.613Z,41.7
2023-05-03T16:10:12.252Z,42.3
2023-05-03T16:15:12.838Z,43
2023-05-03T16:20:13.439Z,43.9
2023-05-03T16:25:14.134Z,44.5
2023-05-03T16:30:14.742Z,44.6
2023-05-03T16:35:15.600Z,44.5
2023-05-03T16:40:16.288Z,44.5
2023-05-03T16:45:16.908Z,45.2
2023-05-03T16:50:17.617Z,45.5
2023-05-03T16:55:18.401Z,45.5
2023-05-03T17:00:19.086Z,45.4
2023-05-03T17:05:19.870Z,45.4
2023-05-03T17:10:20.739Z,45.4
2023-05-03T17:15:21.627Z,45.4
2023-05-03T17:20:22.476Z,45.2
2023-05-03T17:25:23.300Z,44.7
2023-05-03T17:30:24.788Z,42.9
2023-05-03T17:35:25.527Z,44.1
2023-05-03T17:40:26.406Z,45.3
2023-05-03T17:45:27.373Z,45.5
2023-05-03T17:50:28.051Z,45.4
2023-05-03T17:55:28.733Z,45.4
2023-05-03T18:00:29.496Z,45.4
2023-05-03T18:05:30.297Z,45.4
2023-05-03T18:10:30.926Z,45.4
2023-05-03T18:15:31.633Z,45.3
2023-05-03T18:20:32.297Z,45.2
2023-05-03T18:25:33.113Z,45.2
2023-05-03T18:30:33.868Z,45.2
2023-05-03T18:35:34.547Z,45.2
2023-05-03T18:40:36.376Z,45.1
2023-05-03T18:45:37.104Z,45.1
2023-05-03T18:50:37.769Z,45.1
2023-05-03T18:55:38.457Z,45.1
2023-05-03T19:00:39.373Z,45
2023-05-03T19:05:40.073Z,44.9
2023-05-03T19:10:41.185Z,44.9
2023-05-03T19:15:41.897Z,44.9
2023-05-03T19:20:42.504Z,44.8
2023-05-03T19:25:43.126Z,44.8
2023-05-03T19:30:43.864Z,44.7
2023-05-03T19:35:44.610Z,44.7
2023-05-03T19:40:45.414Z,44.7
2023-05-03T19:45:46.119Z,44.6
2023-05-03T19:50:49.844Z,44.6
2023-05-03T19:55:50.545Z,44.6
2023-05-03T20:00:51.178Z,44.6
2023-05-03T20:05:51.980Z,44.5
2023-05-03T20:10:53.221Z,44.5
2023-05-03T20:15:53.947Z,44.4
2023-05-03T20:20:54.681Z,44.4
2023-05-03T20:25:55.293Z,44.3
2023-05-03T20:30:55.888Z,44.3
2023-05-03T20:35:56.669Z,44.2
2023-05-03T20:40:57.290Z,44.2
2023-05-03T20:45:57.934Z,44.2
2023-05-03T20:50:58.611Z,44.1
2023-05-03T20:55:59.203Z,44.1
2023-05-03T21:00:59.840Z,44.1
2023-05-03T21:06:01.731Z,44
2023-05-03T21:11:02.396Z,44
2023-05-03T21:16:03.016Z,43.9
2023-05-03T21:21:03.832Z,43.9
2023-05-03T21:26:04.518Z,43.9
2023-05-03T21:31:05.181Z,43.8
2023-05-03T21:36:05.803Z,43.8
2023-05-03T21:41:06.379Z,43.7
2023-05-03T21:46:07.074Z,43.7
2023-05-03T21:51:07.684Z,43.7
2023-05-03T21:56:08.256Z,43.6
2023-05-03T22:01:08.880Z,43.6
2023-05-03T22:06:09.592Z,43.6
2023-05-03T22:11:10.230Z,43.5
2023-05-03T22:16:10.956Z,43.4
2023-05-03T22:21:11.652Z,43.4
2023-05-03T22:26:12.276Z,43.4
2023-05-03T22:31:12.867Z,43.4
2023-05-03T22:36:13.468Z,43.3
2023-05-03T22:41:14.068Z,43.3
2023-05-03T22:46:14.690Z,43.2
2023-05-03T22:51:15.341Z,43.2
2023-05-03T22:56:15.953Z,43.1
2023-05-03T23:01:17.403Z,43.1
2023-05-03T23:06:18.013Z,43.1
2023-05-03T23:11:18.610Z,43
2023-05-03T23:16:19.390Z,42.9
2023-05-03T23:21:20.007Z,42.9
2023-05-03T23:26:20.685Z,42.9
2023-05-03T23:31:21.732Z,42.8
2023-05-03T23:36:22.664Z,42.8
2023-05-03T23:41:23.434Z,42.7
2023-05-03T23:46:24.161Z,42.7
2023-05-03T23:51:24.758Z,42.7
2023-05-03T23:56:25.341Z,42.6
